Wind From: 13-12-2017 10:08 Until: 14-12-2017 06:00 warning for: Wind Level: Yellow info button

Although rather usual in this region, locally or potentially dangerous phenomena are expected. (such as local winds, summer thunderstorms, rising streams or high waves) Be aware and pay attention to the latest weather updates, especially if you carry out activities exposed to weather or close to a stream or shoreline. 


Meteo18 Weather Cam more information Meteo18 Weather Cam


Thunder radar more information blitzortung!


Rain radar more information rain snow radar


Visit our other weather sites:

Template documentation
and downloads

And another site



Weather Underground History page Text

Daily Summary for February 19, 2016 Units:  Metric    English   Both
« Previous Day
Next Day »
Daily Weekly Monthly Yearly Custom
  High: Low: Average:
Temperature: 7.3 °C -1.4 °C 2.4 °C
Dew Point: 4.6 °C -2.0 °C 1.2 °C
Humidity: 98 % 75 % 92 %
Wind Speed: 8.0 km/h 0.0 km/h 1 km/h
Wind Gust: 14.5 km/h - -
Wind:- - SW
Pressure: 1024.9 hPa 1020.5 hPa -
Precipitation: 0.3 mm    
Historical Graphs
 
 
Tabular Data for February 19, 2016
Time Temperature Dew Point Pressure Wind Wind Speed Wind Gust Humidity Rainfall Rate (Hourly)
00:07 1.9 °C 1.3 °C 1020.5 hPa Calm   1.6 km/h 96 % 0.0 mm
00:12 1.9 °C 1.3 °C 1020.5 hPa Calm   4.8 km/h 96 % 0.0 mm
00:22 1.8 °C 1.2 °C 1020.5 hPa Calm   6.4 km/h 96 % 0.0 mm
00:27 1.7 °C 1.0 °C 1020.5 hPa Calm   6.4 km/h 95 % 0.0 mm
00:37 1.4 °C 0.7 °C 1020.5 hPa Calm     95 % 0.0 mm
00:42 1.3 °C 0.6 °C 1020.5 hPa Calm   1.6 km/h 95 % 0.0 mm
00:52 1.1 °C 0.5 °C 1020.9 hPa Calm   1.6 km/h 96 % 0.0 mm
01:04 0.8 °C 0.2 °C 1020.9 hPa Calm   1.6 km/h 96 % 0.0 mm
01:12 0.6 °C 0.0 °C 1020.9 hPa Calm     96 % 0.0 mm
01:17 0.4 °C -0.3 °C 1020.9 hPa Calm     95 % 0.0 mm
01:22 0.4 °C -0.2 °C 1020.9 hPa Calm   1.6 km/h 96 % 0.0 mm
01:27 0.2 °C -0.4 °C 1021.2 hPa Calm   1.6 km/h 96 % 0.0 mm
01:32 0.3 °C -0.3 °C 1021.2 hPa Calm   1.6 km/h 96 % 0.0 mm
01:37 0.4 °C 0.0 °C 1021.2 hPa Calm   1.6 km/h 97 % 0.0 mm
01:42 0.5 °C 0.1 °C 1021.2 hPa Calm   1.6 km/h 97 % 0.0 mm
01:52 0.5 °C -0.1 °C 1021.2 hPa Calm   1.6 km/h 96 % 0.0 mm
02:02 0.2 °C -0.4 °C 1021.6 hPa Calm   3.2 km/h 96 % 0.0 mm
02:07 0.1 °C -0.5 °C 1021.6 hPa Calm   3.2 km/h 96 % 0.0 mm
02:17 -0.1 °C -0.7 °C 1021.6 hPa ESE 1.6 km/h   96 % 0.0 mm
02:22 0.0 °C -0.4 °C 1021.6 hPa Calm   1.6 km/h 97 % 0.0 mm
02:37 -0.4 °C -1.0 °C 1021.6 hPa Calm     96 % 0.0 mm
02:42 -0.5 °C -1.1 °C 1021.6 hPa Calm     96 % 0.0 mm
02:47 -0.7 °C -1.3 °C 1021.6 hPa Calm     96 % 0.0 mm
02:52 -0.8 °C -1.4 °C 1021.6 hPa Calm     96 % 0.0 mm
02:57 -0.9 °C -1.5 °C 1021.6 hPa Calm     96 % 0.0 mm
03:07 -1.1 °C -1.7 °C 1021.6 hPa Calm     96 % 0.0 mm
03:12 -1.2 °C -1.8 °C 1021.6 hPa Calm     96 % 0.0 mm
03:17 -1.4 °C -2.0 °C 1021.6 hPa Calm     96 % 0.0 mm
03:32 -0.9 °C -1.3 °C 1021.9 hPa Calm   1.6 km/h 97 % 0.0 mm
03:37 -1.1 °C -1.5 °C 1021.9 hPa Calm   1.6 km/h 97 % 0.0 mm
03:42 -1.1 °C -1.5 °C 1021.9 hPa Calm   1.6 km/h 97 % 0.0 mm
03:47 -1.0 °C -1.4 °C 1021.9 hPa Calm   1.6 km/h 97 % 0.0 mm
03:57 -1.1 °C -1.5 °C 1021.9 hPa Calm   1.6 km/h 97 % 0.0 mm
04:02 -1.1 °C -1.5 °C 1021.9 hPa Calm   1.6 km/h 97 % 0.0 mm
04:07 -1.0 °C -1.4 °C 1021.9 hPa Calm   1.6 km/h 97 % 0.0 mm
04:17 -1.0 °C -1.4 °C 1021.9 hPa Calm   1.6 km/h 97 % 0.0 mm
04:22 -1.1 °C -1.5 °C 1021.9 hPa Calm   1.6 km/h 97 % 0.0 mm
04:32 -1.2 °C -1.6 °C 1022.2 hPa Calm   1.6 km/h 97 % 0.0 mm
04:37 -1.1 °C -1.5 °C 1022.2 hPa Calm   1.6 km/h 97 % 0.0 mm
04:42 -0.9 °C -1.3 °C 1022.2 hPa Calm   1.6 km/h 97 % 0.0 mm
04:47 -0.7 °C -1.1 °C 1022.2 hPa Calm   1.6 km/h 97 % 0.0 mm
04:52 -0.6 °C -1.0 °C 1022.2 hPa Calm   1.6 km/h 97 % 0.0 mm
04:57 -0.5 °C -0.9 °C 1022.2 hPa SW 1.6 km/h 4.8 km/h 97 % 0.0 mm
05:02 -0.4 °C -0.8 °C 1022.2 hPa Calm   4.8 km/h 97 % 0.0 mm
05:12 -0.4 °C -0.8 °C 1022.6 hPa SW 1.6 km/h 4.8 km/h 97 % 0.0 mm
05:22 -0.4 °C -0.8 °C 1022.6 hPa SW 3.2 km/h 3.2 km/h 97 % 0.0 mm
05:27 -0.4 °C -0.8 °C 1022.6 hPa WSW 1.6 km/h 3.2 km/h 97 % 0.0 mm
05:37 -0.4 °C -0.8 °C 1022.6 hPa SW 1.6 km/h 4.8 km/h 97 % 0.0 mm
05:42 -0.4 °C -0.8 °C 1022.6 hPa WSW 1.6 km/h 4.8 km/h 97 % 0.0 mm
05:47 -0.4 °C -0.8 °C 1022.6 hPa SW 3.2 km/h 3.2 km/h 97 % 0.0 mm
05:52 -0.5 °C -0.9 °C 1022.9 hPa SW 3.2 km/h 3.2 km/h 97 % 0.0 mm
05:57 -0.6 °C -1.0 °C 1022.9 hPa SW 3.2 km/h 9.7 km/h 97 % 0.0 mm
06:02 -0.6 °C -1.0 °C 1022.9 hPa WSW 3.2 km/h 9.7 km/h 97 % 0.0 mm
06:07 -0.6 °C -1.0 °C 1022.9 hPa Calm   9.7 km/h 97 % 0.0 mm
06:22 -0.4 °C -0.7 °C 1023.2 hPa Calm   8.0 km/h 98 % 0.0 mm
06:32 -0.3 °C -0.6 °C 1023.2 hPa Calm   3.2 km/h 98 % 0.0 mm
06:37 -0.2 °C -0.5 °C 1023.2 hPa SW 3.2 km/h 3.2 km/h 98 % 0.0 mm
06:47 -0.3 °C -0.6 °C 1023.6 hPa SW 3.2 km/h 3.2 km/h 98 % 0.0 mm
06:52 -0.3 °C -0.6 °C 1023.6 hPa SW 3.2 km/h 3.2 km/h 98 % 0.0 mm
07:02 -0.3 °C -0.6 °C 1023.2 hPa SW 1.6 km/h 6.4 km/h 98 % 0.0 mm
07:12 -0.3 °C -0.6 °C 1023.6 hPa SW 1.6 km/h 6.4 km/h 98 % 0.0 mm
07:17 -0.2 °C -0.5 °C 1023.6 hPa Calm   6.4 km/h 98 % 0.0 mm
07:22 -0.2 °C -0.5 °C 1023.6 hPa SW 1.6 km/h 3.2 km/h 98 % 0.0 mm
07:32 -0.1 °C -0.4 °C 1023.6 hPa SW 1.6 km/h 4.8 km/h 98 % 0.0 mm
07:42 -0.1 °C -0.4 °C 1023.6 hPa West 1.6 km/h 4.8 km/h 98 % 0.0 mm
07:47 0.0 °C -0.3 °C 1023.6 hPa Calm   4.8 km/h 98 % 0.0 mm
07:57 0.1 °C -0.2 °C 1023.6 hPa Calm   4.8 km/h 98 % 0.0 mm
08:07 0.1 °C -0.2 °C 1023.9 hPa Calm   3.2 km/h 98 % 0.0 mm
08:17 0.2 °C -0.1 °C 1023.9 hPa SW 1.6 km/h 3.2 km/h 98 % 0.0 mm
08:22 0.2 °C -0.1 °C 1023.9 hPa Calm   4.8 km/h 98 % 0.0 mm
08:27 0.2 °C -0.1 °C 1023.9 hPa SW 1.6 km/h 4.8 km/h 98 % 0.0 mm
08:32 0.3 °C 0.0 °C 1024.3 hPa Calm   4.8 km/h 98 % 0.0 mm
08:37 0.3 °C 0.0 °C 1024.3 hPa Calm   3.2 km/h 98 % 0.0 mm
08:42 0.3 °C 0.0 °C 1024.3 hPa Calm   3.2 km/h 98 % 0.0 mm
08:52 0.4 °C 0.1 °C 1024.3 hPa SW 1.6 km/h 4.8 km/h 98 % 0.0 mm
08:57 0.4 °C 0.1 °C 1024.3 hPa SW 1.6 km/h 4.8 km/h 98 % 0.0 mm
09:02 0.5 °C 0.2 °C 1024.3 hPa Calm   4.8 km/h 98 % 0.0 mm
09:07 0.5 °C 0.2 °C 1024.3 hPa Calm   4.8 km/h 98 % 0.0 mm
09:12 0.6 °C 0.3 °C 1024.3 hPa Calm   4.8 km/h 98 % 0.0 mm
09:17 0.6 °C 0.3 °C 1024.3 hPa Calm   3.2 km/h 98 % 0.0 mm
09:22 0.6 °C 0.3 °C 1024.3 hPa Calm   3.2 km/h 98 % 0.0 mm
09:27 0.7 °C 0.4 °C 1024.3 hPa Calm   3.2 km/h 98 % 0.0 mm
09:37 0.8 °C 0.5 °C 1024.3 hPa Calm   4.8 km/h 98 % 0.0 mm
09:42 0.8 °C 0.5 °C 1024.3 hPa WSW 1.6 km/h 4.8 km/h 98 % 0.0 mm
09:52 0.9 °C 0.6 °C 1024.6 hPa SW 1.6 km/h 4.8 km/h 98 % 0.0 mm
09:57 1.0 °C 0.7 °C 1024.6 hPa Calm   4.8 km/h 98 % 0.0 mm
10:02 1.1 °C 0.8 °C 1024.6 hPa Calm   3.2 km/h 98 % 0.0 mm
10:07 1.2 °C 0.9 °C 1024.6 hPa Calm   3.2 km/h 98 % 0.0 mm
10:12 1.4 °C 1.1 °C 1024.6 hPa Calm   3.2 km/h 98 % 0.0 mm
10:17 1.5 °C 1.2 °C 1024.6 hPa WSW 3.2 km/h 3.2 km/h 98 % 0.0 mm
10:22 1.6 °C 1.3 °C 1024.6 hPa SW 1.6 km/h 3.2 km/h 98 % 0.0 mm
10:27 1.7 °C 1.4 °C 1024.6 hPa Calm   3.2 km/h 98 % 0.0 mm
10:37 1.7 °C 1.4 °C 1024.9 hPa Calm   4.8 km/h 98 % 0.0 mm
10:47 2.0 °C 1.7 °C 1024.9 hPa Calm   4.8 km/h 98 % 0.0 mm
10:52 2.2 °C 1.9 °C 1024.9 hPa Calm   4.8 km/h 98 % 0.0 mm
10:57 2.3 °C 2.0 °C 1024.9 hPa SW 3.2 km/h 6.4 km/h 98 % 0.0 mm
11:02 2.4 °C 2.1 °C 1024.9 hPa Calm   6.4 km/h 98 % 0.0 mm
11:07 2.5 °C 2.2 °C 1024.9 hPa SW 3.2 km/h 6.4 km/h 98 % 0.0 mm
11:12 2.5 °C 2.1 °C 1024.9 hPa SW 4.8 km/h 8.0 km/h 97 % 0.0 mm
11:17 2.6 °C 2.2 °C 1024.9 hPa Calm   8.0 km/h 97 % 0.0 mm
11:22 2.7 °C 2.3 °C 1024.9 hPa West 4.8 km/h 9.7 km/h 97 % 0.0 mm
11:32 2.9 °C 2.3 °C 1024.9 hPa WSW 1.6 km/h 9.7 km/h 96 % 0.0 mm
11:37 3.2 °C 2.8 °C 1024.9 hPa SW 4.8 km/h 8.0 km/h 97 % 0.0 mm
11:47 4.0 °C 3.3 °C 1024.9 hPa WSW 3.2 km/h 8.0 km/h 95 % 0.0 mm
11:52 3.9 °C 2.7 °C 1024.9 hPa West 1.6 km/h 8.0 km/h 92 % 0.3 mm
12:02 4.1 °C 3.1 °C 1024.9 hPa SW 3.2 km/h 9.7 km/h 93 % 0.3 mm
12:07 4.2 °C 3.0 °C 1024.9 hPa SSW 1.6 km/h 9.7 km/h 92 % 0.3 mm
12:17 4.4 °C 3.2 °C 1024.9 hPa SW 4.8 km/h 11.3 km/h 92 % 0.3 mm
12:22 5.0 °C 3.7 °C 1024.9 hPa WSW 1.6 km/h 11.3 km/h 91 % 0.3 mm
12:27 5.6 °C 4.4 °C 1024.9 hPa WSW 1.6 km/h 11.3 km/h 92 % 0.3 mm
12:32 5.9 °C 4.4 °C 1024.9 hPa WSW 4.8 km/h 9.7 km/h 90 % 0.3 mm
12:37 5.9 °C 4.1 °C 1024.9 hPa SSW 1.6 km/h 9.7 km/h 88 % 0.3 mm
12:42 5.8 °C 3.8 °C 1024.9 hPa SW 3.2 km/h 9.7 km/h 87 % 0.3 mm
12:47 5.6 °C 3.8 °C 1024.9 hPa WSW 4.8 km/h 9.7 km/h 88 % 0.0 mm
12:52 5.6 °C 3.9 °C 1024.9 hPa West 1.6 km/h 11.3 km/h 89 % 0.0 mm
13:02 5.5 °C 3.7 °C 1024.9 hPa SSW 3.2 km/h 9.7 km/h 88 % 0.0 mm
13:12 5.4 °C 3.7 °C 1024.9 hPa SSE 4.8 km/h 9.7 km/h 89 % 0.0 mm
13:17 5.3 °C 3.8 °C 1024.9 hPa Calm   9.7 km/h 90 % 0.0 mm
13:22 5.4 °C 3.7 °C 1024.9 hPa SW 4.8 km/h 9.7 km/h 89 % 0.0 mm
13:27 5.4 °C 3.7 °C 1024.9 hPa South 4.8 km/h 9.7 km/h 89 % 0.0 mm
13:37 5.7 °C 4.0 °C 1024.9 hPa SSW 3.2 km/h 9.7 km/h 89 % 0.0 mm
13:42 5.7 °C 3.7 °C 1024.9 hPa WSW 1.6 km/h 9.7 km/h 87 % 0.0 mm
13:52 5.7 °C 4.0 °C 1024.6 hPa SW 4.8 km/h 11.3 km/h 89 % 0.0 mm
13:57 5.8 °C 3.8 °C 1024.6 hPa SW 4.8 km/h 11.3 km/h 87 % 0.0 mm
14:02 5.6 °C 3.4 °C 1024.6 hPa SW 1.6 km/h 11.3 km/h 86 % 0.0 mm
14:07 5.4 °C 3.4 °C 1024.6 hPa SW 4.8 km/h 11.3 km/h 87 % 0.0 mm
14:12 5.3 °C 3.3 °C 1024.6 hPa Calm   11.3 km/h 87 % 0.0 mm
14:22 5.9 °C 4.1 °C 1024.3 hPa SW 3.2 km/h 9.7 km/h 88 % 0.0 mm
14:32 6.7 °C 4.0 °C 1024.3 hPa WSW 6.4 km/h 12.9 km/h 83 % 0.0 mm
14:42 6.7 °C 4.0 °C 1024.3 hPa SSW 4.8 km/h 12.9 km/h 83 % 0.0 mm
14:47 6.7 °C 3.8 °C 1024.3 hPa SW 1.6 km/h 11.3 km/h 82 % 0.0 mm
14:52 6.7 °C 4.0 °C 1024.3 hPa SW 3.2 km/h 9.7 km/h 83 % 0.0 mm
14:57 6.7 °C 4.0 °C 1024.3 hPa Calm   9.7 km/h 83 % 0.0 mm
15:02 6.8 °C 3.9 °C 1024.3 hPa South 1.6 km/h 9.7 km/h 82 % 0.0 mm
15:07 7.1 °C 4.6 °C 1024.3 hPa SW 3.2 km/h 8.0 km/h 84 % 0.0 mm
15:12 7.3 °C 4.3 °C 1024.3 hPa SSW 3.2 km/h 8.0 km/h 81 % 0.0 mm
15:17 7.3 °C 4.1 °C 1024.3 hPa Calm   11.3 km/h 80 % 0.0 mm
15:22 7.2 °C 3.6 °C 1023.9 hPa SW 3.2 km/h 11.3 km/h 78 % 0.0 mm
15:27 7.1 °C 3.3 °C 1023.9 hPa SSW 6.4 km/h 11.3 km/h 77 % 0.0 mm
15:32 6.8 °C 3.2 °C 1023.9 hPa Calm   9.7 km/h 78 % 0.0 mm
15:42 6.6 °C 3.2 °C 1023.9 hPa Calm   14.5 km/h 79 % 0.0 mm
15:47 6.6 °C 3.0 °C 1023.9 hPa WSW 4.8 km/h 14.5 km/h 78 % 0.0 mm
15:52 6.6 °C 3.2 °C 1023.9 hPa Calm   11.3 km/h 79 % 0.0 mm
15:57 6.6 °C 3.0 °C 1023.9 hPa SW 1.6 km/h 11.3 km/h 78 % 0.0 mm
16:02 6.6 °C 3.2 °C 1023.9 hPa SW 1.6 km/h 11.3 km/h 79 % 0.0 mm
16:07 6.6 °C 3.0 °C 1023.9 hPa Calm   11.3 km/h 78 % 0.0 mm
16:12 6.5 °C 2.8 °C 1023.9 hPa SW 1.6 km/h 6.4 km/h 77 % 0.0 mm
16:17 6.6 °C 3.2 °C 1023.9 hPa Calm   6.4 km/h 79 % 0.0 mm
16:22 7.1 °C 3.5 °C 1023.9 hPa WSW 1.6 km/h 6.4 km/h 78 % 0.0 mm
16:27 7.2 °C 3.3 °C 1023.6 hPa SW 8.0 km/h 8.0 km/h 76 % 0.0 mm
16:37 7.1 °C 3.5 °C 1023.6 hPa Calm   8.0 km/h 78 % 0.0 mm
16:42 7.2 °C 3.4 °C 1023.6 hPa Calm   9.7 km/h 77 % 0.0 mm
16:47 7.3 °C 3.2 °C 1023.6 hPa Calm   9.7 km/h 75 % 0.0 mm
16:52 7.3 °C 3.3 °C 1023.6 hPa Calm   9.7 km/h 76 % 0.0 mm
16:57 7.1 °C 3.3 °C 1023.2 hPa Calm   6.4 km/h 77 % 0.0 mm
17:07 7.1 °C 3.3 °C 1023.2 hPa Calm   4.8 km/h 77 % 0.0 mm
17:12 7.3 °C 3.7 °C 1023.2 hPa WSW 1.6 km/h 4.8 km/h 78 % 0.0 mm
17:17 7.3 °C 3.3 °C 1023.6 hPa Calm   4.8 km/h 76 % 0.0 mm
17:22 7.2 °C 3.4 °C 1023.6 hPa Calm   3.2 km/h 77 % 0.0 mm
17:37 6.8 °C 3.2 °C 1023.6 hPa Calm   4.8 km/h 78 % 0.0 mm
17:44 6.5 °C 3.1 °C 1023.6 hPa Calm   1.6 km/h 79 % 0.0 mm
17:52 6.3 °C 2.9 °C 1023.6 hPa SW 1.6 km/h 4.8 km/h 79 % 0.0 mm
18:07 5.7 °C 2.7 °C 1023.6 hPa Calm   4.8 km/h 81 % 0.0 mm
18:12 5.3 °C 2.5 °C 1023.6 hPa Calm   1.6 km/h 82 % 0.0 mm
18:22 4.6 °C 2.1 °C 1023.6 hPa Calm   1.6 km/h 84 % 0.0 mm
18:27 4.1 °C 2.0 °C 1023.6 hPa Calm   1.6 km/h 86 % 0.0 mm
18:32 3.8 °C 2.0 °C 1023.6 hPa Calm   1.6 km/h 88 % 0.0 mm
18:42 3.3 °C 1.7 °C 1023.9 hPa Calm   1.6 km/h 89 % 0.0 mm
18:47 3.0 °C 1.5 °C 1023.9 hPa Calm   1.6 km/h 90 % 0.0 mm
19:02 2.3 °C 1.0 °C 1023.9 hPa Calm     91 % 0.0 mm
19:07 2.0 °C 0.7 °C 1023.9 hPa Calm     91 % 0.0 mm
19:12 1.7 °C 0.4 °C 1023.9 hPa Calm     91 % 0.0 mm
19:17 1.5 °C 0.2 °C 1023.9 hPa Calm     91 % 0.0 mm
19:32 0.8 °C -0.4 °C 1024.3 hPa Calm     92 % 0.0 mm
19:42 0.7 °C -0.3 °C 1023.9 hPa Calm     93 % 0.0 mm
19:52 0.6 °C -0.4 °C 1024.3 hPa Calm     93 % 0.0 mm
19:57 0.6 °C -0.3 °C 1024.3 hPa Calm     94 % 0.0 mm
20:02 0.8 °C 0.1 °C 1024.3 hPa Calm     95 % 0.0 mm
20:12 1.3 °C 0.7 °C 1024.3 hPa Calm   1.6 km/h 96 % 0.0 mm
20:17 1.5 °C 0.8 °C 1024.3 hPa Calm   1.6 km/h 95 % 0.0 mm
20:22 1.6 °C 0.9 °C 1024.3 hPa Calm   1.6 km/h 95 % 0.0 mm
20:27 1.8 °C 1.1 °C 1024.3 hPa Calm   1.6 km/h 95 % 0.0 mm
20:32 1.9 °C 1.2 °C 1024.3 hPa Calm   1.6 km/h 95 % 0.0 mm
20:42 1.7 °C 0.7 °C 1024.3 hPa Calm   1.6 km/h 93 % 0.0 mm
20:47 1.7 °C 0.8 °C 1024.3 hPa Calm   1.6 km/h 94 % 0.0 mm
20:52 1.6 °C 0.7 °C 1024.3 hPa Calm   1.6 km/h 94 % 0.0 mm
20:57 1.4 °C 0.4 °C 1024.3 hPa Calm     93 % 0.0 mm
21:02 1.3 °C 0.4 °C 1024.3 hPa Calm     94 % 0.0 mm
21:12 1.6 °C 0.9 °C 1024.3 hPa Calm     95 % 0.0 mm
21:17 1.9 °C 1.3 °C 1024.3 hPa Calm     96 % 0.0 mm
21:22 2.1 °C 1.4 °C 1024.3 hPa Calm     95 % 0.0 mm
21:27 2.3 °C 1.6 °C 1024.3 hPa Calm     95 % 0.0 mm
21:32 2.4 °C 1.7 °C 1024.6 hPa Calm     95 % 0.0 mm
21:37 2.6 °C 1.9 °C 1024.3 hPa Calm   1.6 km/h 95 % 0.0 mm
21:42 2.6 °C 1.7 °C 1024.6 hPa Calm   1.6 km/h 94 % 0.0 mm
21:52 2.7 °C 1.8 °C 1024.3 hPa Calm   1.6 km/h 94 % 0.0 mm
22:02 2.8 °C 1.9 °C 1024.3 hPa SW 1.6 km/h 1.6 km/h 94 % 0.0 mm
22:07 2.8 °C 2.1 °C 1024.3 hPa Calm   3.2 km/h 95 % 0.0 mm
22:12 2.9 °C 2.2 °C 1024.3 hPa Calm   3.2 km/h 95 % 0.0 mm
22:17 2.8 °C 1.9 °C 1024.3 hPa Calm   1.6 km/h 94 % 0.0 mm
22:22 2.7 °C 1.8 °C 1024.3 hPa Calm   1.6 km/h 94 % 0.0 mm
22:32 2.2 °C 1.3 °C 1024.3 hPa Calm   1.6 km/h 94 % 0.0 mm
22:37 2.0 °C 1.1 °C 1024.3 hPa Calm     94 % 0.0 mm
22:42 1.8 °C 0.9 °C 1023.9 hPa Calm   1.6 km/h 94 % 0.0 mm
22:47 1.7 °C 0.8 °C 1023.9 hPa Calm   1.6 km/h 94 % 0.0 mm
22:52 1.6 °C 0.9 °C 1023.9 hPa Calm   1.6 km/h 95 % 0.0 mm
22:57 1.7 °C 1.0 °C 1023.9 hPa West 1.6 km/h 1.6 km/h 95 % 0.0 mm
23:02 1.8 °C 1.1 °C 1023.9 hPa Calm   1.6 km/h 95 % 0.0 mm
23:07 1.7 °C 1.0 °C 1023.9 hPa Calm   1.6 km/h 95 % 0.0 mm
23:12 1.7 °C 1.1 °C 1023.9 hPa Calm   1.6 km/h 96 % 0.0 mm
23:22 1.8 °C 1.2 °C 1023.6 hPa Calm   1.6 km/h 96 % 0.0 mm
23:27 1.8 °C 1.2 °C 1023.6 hPa Calm   1.6 km/h 96 % 0.0 mm
23:32 1.9 °C 1.3 °C 1023.6 hPa Calm   1.6 km/h 96 % 0.0 mm
23:37 2.1 °C 1.5 °C 1023.9 hPa SW 1.6 km/h 1.6 km/h 96 % 0.0 mm
23:42 2.3 °C 1.7 °C 1023.6 hPa SW 1.6 km/h 3.2 km/h 96 % 0.0 mm
23:52 2.6 °C 2.0 °C 1023.6 hPa Calm   3.2 km/h 96 % 0.0 mm
23:57 2.7 °C 2.1 °C 1023.6 hPa SW 1.6 km/h 3.2 km/h 96 % 0.0 mm
Meteo18
Compliments of Weather Underground - 4 mb

Script developed by  Jim McMurry - jmcmurry@mwt.net Adapted for the template by  Wim van der Kuil - Leuven-Template.eu

You find our weather info also at:

European Weather Network

Weather Underground

Equipment we use:

Weather-station
Davis Vue

Weather-program
Meteohub

Weather-server
Raspberry PI 2 B+

Provider
1 and 1

Davis Vue

Meteohub

Raspberry PI 2 B+

1 and 1